Time;durP1;ratioP1;P1;durP2;ratioP2;P2;SDS_P1;SDS_P2;PMS_P1;PMS_P2;Temp;Humidity;BMP_temperature;BMP_pressure;BME280_temperature;BME280_humidity;BME280_pressure;Samples;Min_cycle;Max_cycle;Signal;HPM_P1;HPM_P2
2022/09/29 00:00:41;;;;;;;0.00;0.00;;;;;;;7.06;100.00;98815.13;5010885;28;20187;-77
2022/09/29 00:03:06;;;;;;;0.00;0.00;;;;;;;7.07;100.00;98826.78;5010800;28;20184;-79
2022/09/29 00:05:32;;;;;;;0.00;0.00;;;;;;;7.05;100.00;98827.13;5010876;28;20212;-77
2022/09/29 00:07:58;;;;;;;0.27;0.13;;;;;;;7.03;100.00;98828.59;4992359;28;20185;-77
2022/09/29 00:10:23;;;;;;;0.37;0.30;;;;;;;6.93;100.00;98828.94;5010883;28;20216;-78
2022/09/29 00:12:49;;;;;;;0.00;0.00;;;;;;;6.91;100.00;98825.75;5011052;28;20475;-77
2022/09/29 00:15:14;;;;;;;0.00;0.00;;;;;;;6.81;100.00;98829.66;5010825;28;20184;-78
2022/09/29 00:17:40;;;;;;;0.10;0.10;;;;;;;6.78;100.00;98835.72;4992908;28;20208;-78
2022/09/29 00:20:06;;;;;;;0.00;0.00;;;;;;;6.76;100.00;98832.53;5010764;28;20579;-77
2022/09/29 00:22:31;;;;;;;0.00;0.00;;;;;;;6.77;100.00;98834.91;5010854;28;20177;-77
2022/09/29 00:24:57;;;;;;;0.00;0.00;;;;;;;6.85;100.00;98842.25;5010734;28;20227;-77
2022/09/29 00:27:22;;;;;;;0.00;0.00;;;;;;;6.84;100.00;98837.16;5010744;28;20184;-78
2022/09/29 00:29:48;;;;;;;0.00;0.00;;;;;;;6.83;100.00;98833.63;5011033;28;20656;-78
2022/09/29 00:32:14;;;;;;;0.00;0.00;;;;;;;6.73;100.00;98835.91;5010931;28;20181;-78
2022/09/29 00:34:39;;;;;;;0.00;0.00;;;;;;;6.73;100.00;98838.63;4993202;28;20650;-78
2022/09/29 00:37:04;;;;;;;0.10;0.10;;;;;;;6.75;100.00;98837.16;5010407;28;20173;-76
2022/09/29 00:39:30;;;;;;;0.00;0.00;;;;;;;6.62;100.00;98830.03;5010663;28;20269;-78
2022/09/29 00:41:56;;;;;;;0.20;0.20;;;;;;;6.52;100.00;98833.91;5010735;28;20687;-78
2022/09/29 00:44:21;;;;;;;0.00;0.00;;;;;;;6.53;100.00;98832.78;5010790;28;20192;-78
2022/09/29 00:46:59;;;;;;;0.00;0.00;;;;;;;6.57;100.00;98833.72;5010271;28;20534;-77
2022/09/29 00:49:38;;;;;;;0.00;0.00;;;;;;;6.53;100.00;98830.06;4992912;28;20175;-77
2022/09/29 00:52:16;;;;;;;0.00;0.00;;;;;;;6.40;100.00;98825.66;5010769;28;20187;-78
2022/09/29 00:54:47;;;;;;;0.00;0.00;;;;;;;6.44;100.00;98821.16;5010827;28;20172;-76
2022/09/29 00:57:17;;;;;;;0.00;0.00;;;;;;;6.55;100.00;98829.75;5010285;28;20231;-78
2022/09/29 00:59:53;;;;;;;0.30;0.30;;;;;;;6.48;100.00;98832.16;5010491;28;20172;-77
2022/09/29 01:02:20;;;;;;;0.00;0.00;;;;;;;6.49;100.00;98822.88;5010282;28;20689;-78
2022/09/29 01:04:50;;;;;;;0.03;0.03;;;;;;;6.43;100.00;98835.03;5010288;28;20292;-77
2022/09/29 01:07:16;;;;;;;0.00;0.00;;;;;;;6.34;100.00;98832.34;5010386;28;20550;-77
2022/09/29 01:09:42;;;;;;;0.97;0.97;;;;;;;6.20;100.00;98831.75;5010374;28;20176;-77
2022/09/29 01:12:07;;;;;;;0.00;0.00;;;;;;;6.12;100.00;98827.94;5010241;28;20234;-77
2022/09/29 01:14:34;;;;;;;0.00;0.00;;;;;;;5.93;100.00;98836.41;5011066;28;20693;-77
2022/09/29 01:17:00;;;;;;;0.00;0.00;;;;;;;5.74;100.00;98830.47;5012030;28;20223;-76
2022/09/29 01:19:34;;;;;;;0.30;0.30;;;;;;;5.63;100.00;98830.00;5015803;28;20173;-76
2022/09/29 01:22:26;;;;;;;0.00;0.00;;;;;;;5.60;100.00;98832.53;5014285;28;20165;-75
2022/09/29 01:24:57;;;;;;;0.43;0.43;;;;;;;5.54;100.00;98834.63;4999700;28;20208;-75
2022/09/29 01:27:38;;;;;;;0.40;0.40;;;;;;;5.57;100.00;98831.28;5013715;28;20638;-77
2022/09/29 01:30:12;;;;;;;0.00;0.00;;;;;;;5.61;100.00;98836.84;5013857;28;20176;-76
2022/09/29 01:32:50;;;;;;;1.73;1.50;;;;;;;5.63;100.00;98835.41;4996240;28;20533;-76
2022/09/29 01:35:25;;;;;;;1.30;1.30;;;;;;;5.68;100.00;98839.91;5013637;28;20579;-76
2022/09/29 01:38:10;;;;;;;0.40;0.40;;;;;;;5.99;100.00;98838.97;5013501;28;20199;-76
2022/09/29 01:41:06;;;;;;;0.00;0.00;;;;;;;6.14;100.00;98833.03;5002587;28;20184;-76
2022/09/29 01:43:41;;;;;;;0.00;0.00;;;;;;;6.27;100.00;98837.47;5013453;28;20160;-77
2022/09/29 01:46:14;;;;;;;6.47;1.33;;;;;;;6.23;100.00;98839.25;5013099;28;20644;-76
2022/09/29 01:48:47;;;;;;;0.37;0.37;;;;;;;6.26;100.00;98833.19;4995737;28;20235;-76
2022/09/29 01:51:16;;;;;;;0.93;0.93;;;;;;;6.25;100.00;98837.81;5013302;28;20255;-77
2022/09/29 01:53:48;;;;;;;2.33;1.23;;;;;;;6.40;100.00;98833.78;5013150;28;20252;-76
2022/09/29 01:56:21;;;;;;;1.00;1.00;;;;;;;6.51;100.00;98835.03;5013302;28;20242;-76
2022/09/29 01:58:57;;;;;;;3.03;2.53;;;;;;;6.56;100.00;98840.28;5013245;28;20268;-76
2022/09/29 02:01:28;;;;;;;4.17;3.80;;;;;;;6.67;100.00;98835.31;5013506;28;20511;-76
2022/09/29 02:04:01;;;;;;;3.17;2.97;;;;;;;6.70;100.00;98837.34;5012770;28;20215;-77
2022/09/29 02:06:35;;;;;;;2.40;2.20;;;;;;;6.74;100.00;98841.00;5012753;28;20546;-76
2022/09/29 02:09:02;;;;;;;4.47;4.13;;;;;;;6.76;100.00;98838.75;5012980;28;20499;-76
2022/09/29 02:11:31;;;;;;;2.80;2.70;;;;;;;6.78;100.00;98841.94;5012907;28;20537;-76
2022/09/29 02:14:05;;;;;;;5.17;4.67;;;;;;;6.78;100.00;98847.38;5012829;28;20219;-76
2022/09/29 02:16:38;;;;;;;4.60;4.17;;;;;;;6.82;100.00;98845.63;5012427;28;20172;-75
2022/09/29 02:19:08;;;;;;;1.80;1.47;;;;;;;6.81;100.00;98844.03;5013076;28;20169;-76
2022/09/29 02:21:34;;;;;;;6.33;2.57;;;;;;;6.79;100.00;98840.03;5012781;28;20195;-76
2022/09/29 02:23:59;;;;;;;2.83;2.20;;;;;;;6.79;100.00;98845.44;5012628;28;20462;-77
2022/09/29 02:26:30;;;;;;;2.37;2.17;;;;;;;6.77;100.00;98839.56;5012439;28;20195;-76
2022/09/29 02:28:55;;;;;;;6.23;1.57;;;;;;;6.77;100.00;98834.91;5012911;28;20527;-76
2022/09/29 02:31:21;;;;;;;2.93;1.53;;;;;;;6.76;100.00;98848.81;5011766;28;20179;-76
2022/09/29 02:33:46;;;;;;;2.60;2.40;;;;;;;6.76;100.00;98841.47;5012456;28;20183;-76
2022/09/29 02:36:32;;;;;;;0.37;0.33;;;;;;;6.78;100.00;98841.94;5012425;28;20169;-77
2022/09/29 02:39:30;;;;;;;5.40;3.80;;;;;;;6.80;100.00;98844.34;5012381;28;20542;-77
2022/09/29 02:42:05;;;;;;;3.97;3.77;;;;;;;6.79;100.00;98848.16;4987702;28;20189;-76
2022/09/29 02:44:30;;;;;;;2.23;2.13;;;;;;;6.80;100.00;98845.16;5012143;28;20671;-75
2022/09/29 02:47:27;;;;;;;3.40;3.10;;;;;;;6.80;100.00;98845.16;5011874;28;20177;-76
2022/09/29 02:50:16;;;;;;;25.17;3.87;;;;;;;6.80;100.00;98844.34;5012116;28;20180;-77
2022/09/29 02:52:54;;;;;;;2.80;2.67;;;;;;;6.83;100.00;98846.41;5012060;28;20523;-76
2022/09/29 02:55:39;;;;;;;0.83;0.83;;;;;;;6.89;100.00;98850.53;4994439;28;20172;-76
2022/09/29 02:58:25;;;;;;;1.97;1.87;;;;;;;6.94;100.00;98849.53;4980587;28;20190;-76
2022/09/29 03:00:52;;;;;;;2.53;2.43;;;;;;;6.96;100.00;98852.75;5011923;28;20276;-77
2022/09/29 03:03:18;;;;;;;5.90;5.47;;;;;;;7.00;100.00;98853.69;5012112;28;20185;-76
2022/09/29 03:05:43;;;;;;;8.10;6.90;;;;;;;7.05;100.00;98848.84;5011645;28;20270;-77
2022/09/29 03:08:08;;;;;;;4.40;4.00;;;;;;;7.13;100.00;98837.16;5011518;28;20240;-77
2022/09/29 03:10:34;;;;;;;2.60;2.40;;;;;;;7.15;100.00;98848.50;5011668;28;20528;-75
2022/09/29 03:12:59;;;;;;;3.83;3.63;;;;;;;7.18;100.00;98855.19;5011768;28;20177;-76
2022/09/29 03:15:24;;;;;;;6.90;4.07;;;;;;;7.21;100.00;98856.44;5011676;28;20279;-77
2022/09/29 03:17:54;;;;;;;5.60;5.00;;;;;;;7.24;100.00;98853.09;5011373;28;20177;-76
2022/09/29 03:20:19;;;;;;;14.77;5.87;;;;;;;7.23;100.00;98852.25;5011438;28;20660;-76
2022/09/29 03:22:44;;;;;;;0.83;0.83;;;;;;;7.25;100.00;98851.97;5011294;28;20335;-76
2022/09/29 03:25:11;;;;;;;1.13;1.13;;;;;;;7.24;100.00;98861.25;5011498;28;20204;-76
2022/09/29 03:27:37;;;;;;;1.53;1.43;;;;;;;7.19;100.00;98856.78;5011199;28;20176;-76
2022/09/29 03:30:03;;;;;;;0.00;0.00;;;;;;;7.21;100.00;98867.31;5011428;28;20165;-76
2022/09/29 03:32:29;;;;;;;0.27;0.27;;;;;;;7.23;100.00;98865.84;5011491;28;20256;-76
2022/09/29 03:34:54;;;;;;;1.80;1.80;;;;;;;7.20;100.00;98865.72;5011361;28;20290;-76
2022/09/29 03:37:20;;;;;;;0.00;0.00;;;;;;;7.02;100.00;98865.81;5010978;28;20173;-77
2022/09/29 03:39:45;;;;;;;0.03;0.03;;;;;;;6.78;100.00;98863.66;5011380;28;20311;-76
2022/09/29 03:42:10;;;;;;;0.00;0.00;;;;;;;6.46;100.00;98872.38;5010747;28;20263;-76
2022/09/29 03:44:36;;;;;;;0.00;0.00;;;;;;;6.32;100.00;98858.19;5011307;28;20208;-77
2022/09/29 03:47:01;;;;;;;0.00;0.00;;;;;;;6.33;100.00;98868.72;4977090;28;20192;-76
2022/09/29 03:49:26;;;;;;;0.00;0.00;;;;;;;6.03;100.00;98869.72;5010991;28;20231;-77
2022/09/29 03:51:52;;;;;;;1.33;1.30;;;;;;;6.24;100.00;98868.75;5011387;28;20180;-76
2022/09/29 03:54:17;;;;;;;0.00;0.00;;;;;;;6.50;100.00;98873.31;5011076;28;20575;-76
2022/09/29 03:56:42;;;;;;;2.00;1.90;;;;;;;6.64;100.00;98882.06;5010888;28;20184;-78
2022/09/29 03:59:10;;;;;;;1.23;1.23;;;;;;;6.69;100.00;98878.38;5011086;28;20176;-76
2022/09/29 04:01:37;;;;;;;1.23;1.23;;;;;;;6.69;100.00;98864.81;4993482;28;20511;-77
2022/09/29 04:04:04;;;;;;;0.00;0.00;;;;;;;6.73;100.00;98879.34;5010469;28;20216;-76
2022/09/29 04:06:29;;;;;;;0.77;0.77;;;;;;;6.71;100.00;98889.72;5010769;28;20185;-77
2022/09/29 04:08:55;;;;;;;0.73;0.73;;;;;;;6.77;100.00;98891.13;5010819;28;20187;-76
2022/09/29 04:11:20;;;;;;;0.50;0.50;;;;;;;6.80;100.00;98890.50;5010869;28;20263;-76
2022/09/29 04:13:45;;;;;;;1.40;1.37;;;;;;;6.80;100.00;98888.59;5011085;28;20184;-75
2022/09/29 04:16:10;;;;;;;0.43;0.43;;;;;;;6.81;100.00;98889.38;5010412;28;20259;-76
2022/09/29 04:18:36;;;;;;;0.73;0.73;;;;;;;6.82;100.00;98890.97;4993092;28;20176;-77
2022/09/29 04:21:06;;;;;;;2.00;1.90;;;;;;;6.80;100.00;98887.78;4993022;28;20180;-75
2022/09/29 04:23:32;;;;;;;0.93;0.93;;;;;;;6.85;100.00;98890.31;5010485;28;20668;-75
2022/09/29 04:26:00;;;;;;;0.40;0.40;;;;;;;6.84;100.00;98894.16;5010374;28;20188;-75
2022/09/29 04:28:26;;;;;;;0.00;0.00;;;;;;;6.83;100.00;98890.63;5010567;28;20707;-75
2022/09/29 04:30:51;;;;;;;1.83;1.73;;;;;;;6.86;100.00;98900.03;5010421;28;20180;-75
2022/09/29 04:33:16;;;;;;;0.00;0.00;;;;;;;6.68;100.00;98903.94;5010554;28;20303;-75
2022/09/29 04:35:42;;;;;;;0.00;0.00;;;;;;;6.49;100.00;98905.06;5010337;28;20187;-75
2022/09/29 04:38:08;;;;;;;0.00;0.00;;;;;;;6.21;100.00;98903.84;5010572;28;20188;-75
2022/09/29 04:40:34;;;;;;;0.00;0.00;;;;;;;6.15;100.00;98899.69;5010468;28;20180;-76
2022/09/29 04:43:00;;;;;;;1.20;1.20;;;;;;;6.09;100.00;98906.41;5010123;28;20686;-74
2022/09/29 04:45:25;;;;;;;0.00;0.00;;;;;;;6.19;100.00;98912.28;5010470;28;20208;-76
2022/09/29 04:47:51;;;;;;;0.00;0.00;;;;;;;6.30;100.00;98909.25;5010282;28;20444;-75
2022/09/29 04:50:16;;;;;;;1.10;1.10;;;;;;;6.57;100.00;98912.41;5010399;28;20184;-75
2022/09/29 04:52:42;;;;;;;0.07;0.07;;;;;;;6.66;100.00;98906.97;5010427;28;20590;-75
2022/09/29 04:55:10;;;;;;;1.10;0.87;;;;;;;6.75;100.00;98917.78;5012684;28;20176;-75
2022/09/29 04:57:36;;;;;;;0.00;0.00;;;;;;;6.77;100.00;98916.34;5013998;28;20267;-76
2022/09/29 05:00:03;;;;;;;0.00;0.00;;;;;;;6.46;100.00;98911.16;5014397;28;20188;-75
2022/09/29 05:02:28;;;;;;;0.00;0.00;;;;;;;6.39;100.00;98918.19;5013978;28;20188;-76
2022/09/29 05:04:54;;;;;;;0.00;0.00;;;;;;;5.96;100.00;98914.38;5014197;28;20215;-76
2022/09/29 05:07:19;;;;;;;0.00;0.00;;;;;;;5.84;100.00;98916.09;5013986;28;20181;-76
2022/09/29 05:09:45;;;;;;;0.00;0.00;;;;;;;5.66;100.00;98918.78;5014122;28;20176;-75
2022/09/29 05:12:10;;;;;;;0.20;0.20;;;;;;;5.84;100.00;98926.94;5013787;28;20188;-73
2022/09/29 05:14:35;;;;;;;0.00;0.00;;;;;;;5.80;100.00;98926.78;5013985;28;20184;-76
2022/09/29 05:17:01;;;;;;;0.00;0.00;;;;;;;5.84;100.00;98929.63;5013849;28;20556;-75
2022/09/29 05:19:26;;;;;;;0.00;0.00;;;;;;;6.10;100.00;98926.97;5014075;28;20323;-76
2022/09/29 05:21:51;;;;;;;0.40;0.40;;;;;;;6.21;100.00;98930.94;5013774;28;20314;-75
2022/09/29 05:24:17;;;;;;;0.00;0.00;;;;;;;6.17;100.00;98927.28;5013825;28;20667;-75
2022/09/29 05:26:42;;;;;;;0.40;0.40;;;;;;;6.22;100.00;98936.09;5013442;28;20651;-76
2022/09/29 05:29:07;;;;;;;0.43;0.43;;;;;;;6.19;100.00;98935.91;5013701;28;20177;-76
2022/09/29 05:31:32;;;;;;;0.00;0.00;;;;;;;6.17;100.00;98933.50;5013638;28;20311;-76
2022/09/29 05:33:58;;;;;;;0.00;0.00;;;;;;;6.20;100.00;98934.78;5013751;28;20330;-75
2022/09/29 05:36:24;;;;;;;0.00;0.00;;;;;;;6.11;100.00;98937.50;5013296;28;20172;-76
2022/09/29 05:38:49;;;;;;;0.00;0.00;;;;;;;5.74;100.00;98935.34;5013582;28;20177;-76
2022/09/29 05:41:21;;;;;;;0.00;0.00;;;;;;;5.64;100.00;98937.28;5012952;28;20275;-74
2022/09/29 05:43:47;;;;;;;0.00;0.00;;;;;;;5.40;100.00;98927.97;5013654;28;20245;-75
2022/09/29 05:46:13;;;;;;;0.00;0.00;;;;;;;5.44;100.00;98934.34;5013077;28;20181;-76
2022/09/29 05:48:39;;;;;;;0.00;0.00;;;;;;;5.72;100.00;98938.38;5013665;28;20203;-76
2022/09/29 05:51:10;;;;;;;0.00;0.00;;;;;;;5.97;100.00;98940.38;5013280;28;20591;-76
2022/09/29 05:53:36;;;;;;;0.10;0.10;;;;;;;6.13;100.00;98948.03;5012992;28;20234;-76
2022/09/29 05:56:13;;;;;;;0.00;0.00;;;;;;;6.19;100.00;98947.53;4995395;28;20279;-76
2022/09/29 05:58:39;;;;;;;0.00;0.00;;;;;;;6.23;100.00;98948.53;5013179;28;20172;-76
2022/09/29 06:01:10;;;;;;;0.00;0.00;;;;;;;6.25;100.00;98943.56;5013040;28;20176;-76
2022/09/29 06:03:36;;;;;;;0.00;0.00;;;;;;;6.30;100.00;98947.22;5012827;28;20242;-76
2022/09/29 06:06:13;;;;;;;0.20;0.20;;;;;;;6.35;100.00;98947.84;5011554;28;20177;-76
2022/09/29 06:08:38;;;;;;;0.13;0.13;;;;;;;6.26;100.00;98947.88;4995226;28;20279;-75
2022/09/29 06:11:14;;;;;;;1.57;1.47;;;;;;;6.16;100.00;98953.59;4995217;28;20181;-75
2022/09/29 06:13:44;;;;;;;0.00;0.00;;;;;;;6.21;100.00;98947.22;5012798;28;20639;-75
2022/09/29 06:16:11;;;;;;;0.00;0.00;;;;;;;6.28;100.00;98955.69;5012531;28;20255;-76
2022/09/29 06:18:37;;;;;;;0.00;0.00;;;;;;;6.35;100.00;98955.19;4995201;28;20212;-75
2022/09/29 06:21:04;;;;;;;0.27;0.27;;;;;;;6.40;100.00;98955.84;5012978;28;20184;-76
2022/09/29 06:23:30;;;;;;;0.00;0.00;;;;;;;6.48;100.00;98959.66;5012819;28;20181;-77
2022/09/29 06:26:00;;;;;;;0.00;0.00;;;;;;;6.48;100.00;98957.75;5012388;28;20311;-76
2022/09/29 06:28:27;;;;;;;0.10;0.10;;;;;;;6.53;100.00;98959.50;5012600;28;20602;-78
2022/09/29 06:30:57;;;;;;;0.20;0.20;;;;;;;6.54;100.00;98959.19;4994871;28;20181;-77
2022/09/29 06:33:23;;;;;;;0.00;0.00;;;;;;;6.57;100.00;98957.75;5012516;28;20184;-76
2022/09/29 06:38:32;;;;;;;0.00;0.00;;;;;;;6.69;100.00;98962.53;5012444;28;20606;-78
2022/09/29 06:40:58;;;;;;;0.00;0.00;;;;;;;6.78;100.00;98963.28;5011740;28;20252;-77
2022/09/29 06:43:23;;;;;;;0.00;0.00;;;;;;;6.71;100.00;98963.00;5012302;28;20173;-78
2022/09/29 06:45:49;;;;;;;0.00;0.00;;;;;;;6.65;100.00;98967.78;4994529;28;20718;-78
2022/09/29 06:48:14;;;;;;;0.00;0.00;;;;;;;6.67;100.00;98964.75;5012176;28;20173;-76
2022/09/29 06:50:39;;;;;;;0.87;0.87;;;;;;;6.65;100.00;98967.78;5012250;28;20172;-77
2022/09/29 06:53:04;;;;;;;0.63;0.63;;;;;;;6.76;100.00;98960.09;5012055;28;20296;-76
2022/09/29 06:55:30;;;;;;;0.43;0.43;;;;;;;6.79;100.00;98967.59;4994340;28;20259;-77
2022/09/29 06:57:56;;;;;;;0.20;0.20;;;;;;;6.73;100.00;98972.41;5012007;28;20180;-76
2022/09/29 07:00:21;;;;;;;0.00;0.00;;;;;;;6.80;100.00;98972.72;5012132;28;20180;-76
2022/09/29 07:02:46;;;;;;;0.00;0.00;;;;;;;6.95;100.00;98970.63;5011900;28;20636;-76
2022/09/29 07:05:11;;;;;;;0.00;0.00;;;;;;;7.07;100.00;98979.66;5011856;28;20541;-76
2022/09/29 07:07:37;;;;;;;0.00;0.00;;;;;;;7.27;100.00;98982.81;5011682;28;20176;-76
2022/09/29 07:10:02;;;;;;;0.30;0.30;;;;;;;7.29;100.00;98975.94;5012178;28;20180;-76
2022/09/29 07:12:27;;;;;;;0.00;0.00;;;;;;;7.39;100.00;98972.84;5011586;28;20839;-77
2022/09/29 07:14:53;;;;;;;0.00;0.00;;;;;;;7.49;100.00;98979.81;5011725;28;20227;-78
2022/09/29 07:17:18;;;;;;;0.00;0.00;;;;;;;7.58;100.00;98979.78;5011254;28;20275;-76
2022/09/29 07:19:44;;;;;;;0.00;0.00;;;;;;;7.64;100.00;98984.72;4994035;28;20186;-76
2022/09/29 07:22:09;;;;;;;0.43;0.37;;;;;;;7.71;100.00;98974.13;5011541;28;20208;-77
2022/09/29 07:24:35;;;;;;;0.00;0.00;;;;;;;7.87;100.00;98992.59;5011479;28;20212;-75
2022/09/29 07:27:00;;;;;;;0.73;0.73;;;;;;;8.01;100.00;98985.00;5011294;28;20538;-77
2022/09/29 07:29:26;;;;;;;1.63;0.83;;;;;;;8.17;100.00;98991.44;5011437;28;20176;-77
2022/09/29 07:31:51;;;;;;;1.93;0.77;;;;;;;8.24;100.00;98993.63;5011335;28;20173;-77
2022/09/29 07:34:18;;;;;;;3.53;2.73;;;;;;;8.21;100.00;99008.69;5011337;28;20687;-75
2022/09/29 07:36:43;;;;;;;1.13;1.10;;;;;;;8.27;100.00;99001.13;5011046;28;20188;-76
2022/09/29 07:39:09;;;;;;;3.27;3.00;;;;;;;8.26;100.00;99003.06;5011157;28;20189;-76
2022/09/29 07:41:34;;;;;;;5.07;4.67;;;;;;;8.25;100.00;99009.63;4992993;28;20196;-75
2022/09/29 07:43:59;;;;;;;2.43;2.33;;;;;;;8.28;100.00;99008.97;5011170;28;20227;-76
2022/09/29 07:46:25;;;;;;;1.30;1.30;;;;;;;8.33;100.00;99014.19;5011141;28;20185;-76
2022/09/29 07:48:50;;;;;;;0.97;0.97;;;;;;;8.36;100.00;99015.50;5011211;28;20184;-77
2022/09/29 07:51:18;;;;;;;4.40;3.20;;;;;;;8.39;100.00;99014.03;5010878;28;20176;-76
2022/09/29 07:53:44;;;;;;;2.73;2.63;;;;;;;8.44;100.00;99011.91;4993414;28;20400;-78
2022/09/29 07:56:16;;;;;;;2.87;2.70;;;;;;;8.55;100.00;99015.03;5010907;28;20180;-78
2022/09/29 07:58:41;;;;;;;7.13;4.60;;;;;;;8.67;100.00;99022.44;5011060;28;20263;-78
2022/09/29 08:01:11;;;;;;;4.93;4.50;;;;;;;8.69;100.00;99015.56;5010878;28;20284;-77
2022/09/29 08:03:38;;;;;;;6.87;2.67;;;;;;;8.77;100.00;99024.78;5010743;28;20258;-77
2022/09/29 08:06:04;;;;;;;0.50;0.50;;;;;;;8.80;100.00;99026.81;5010507;28;20176;-78
2022/09/29 08:08:29;;;;;;;6.23;5.70;;;;;;;8.89;100.00;99031.06;5011028;28;20302;-76
2022/09/29 08:11:07;;;;;;;1.43;1.33;;;;;;;9.00;100.00;99027.94;5010863;28;20242;-75
2022/09/29 08:13:34;;;;;;;1.13;1.03;;;;;;;9.10;100.00;99038.38;5010813;28;20172;-77
2022/09/29 08:16:02;;;;;;;3.10;2.90;;;;;;;9.16;100.00;99032.41;5010585;28;20169;-77
2022/09/29 08:18:28;;;;;;;3.73;3.43;;;;;;;9.27;100.00;99035.50;5010596;28;20172;-76
2022/09/29 08:20:54;;;;;;;2.47;2.07;;;;;;;9.27;100.00;99037.44;5010585;28;20176;-77
2022/09/29 08:23:20;;;;;;;4.90;1.80;;;;;;;9.35;100.00;99037.31;5010839;28;20176;-76
2022/09/29 08:25:45;;;;;;;3.17;2.97;;;;;;;9.38;100.00;99044.03;5010366;28;20200;-76
2022/09/29 08:28:10;;;;;;;3.10;2.80;;;;;;;9.48;100.00;99055.28;5010688;28;20180;-76
2022/09/29 08:30:37;;;;;;;6.27;2.60;;;;;;;9.53;99.81;99052.34;4992357;28;20180;-77
2022/09/29 08:33:03;;;;;;;3.97;1.80;;;;;;;9.69;99.62;99057.13;4992946;28;20196;-77
2022/09/29 08:35:28;;;;;;;5.70;4.30;;;;;;;9.86;99.60;99056.94;4992827;28;20377;-77
2022/09/29 08:37:57;;;;;;;5.30;4.80;;;;;;;9.76;97.06;99058.19;5010497;28;20176;-75
2022/09/29 08:40:26;;;;;;;5.37;4.07;;;;;;;9.68;96.90;99061.00;5010592;28;20180;-78
2022/09/29 08:43:05;;;;;;;2.93;2.73;;;;;;;9.63;97.14;99069.41;5010169;28;20632;-77
2022/09/29 08:45:57;;;;;;;3.30;2.67;;;;;;;9.70;98.30;99067.72;5010426;28;20207;-77
2022/09/29 08:48:26;;;;;;;3.97;3.67;;;;;;;9.79;97.89;99078.53;5002466;28;20204;-75
2022/09/29 08:50:57;;;;;;;7.80;4.70;;;;;;;9.76;96.75;99068.28;5010485;28;20188;-77
2022/09/29 08:53:25;;;;;;;1.97;1.87;;;;;;;9.77;96.49;99067.16;5010790;28;20183;-74
2022/09/29 08:55:59;;;;;;;2.43;2.33;;;;;;;9.83;97.15;99073.97;5010208;28;20632;-75
2022/09/29 08:58:24;;;;;;;5.40;4.90;;;;;;;9.79;96.60;99067.59;5010663;28;20172;-74
2022/09/29 09:01:12;;;;;;;1.63;1.53;;;;;;;9.78;96.75;99074.19;5015476;28;20652;-75
2022/09/29 09:03:40;;;;;;;5.27;4.73;;;;;;;9.87;97.45;99076.84;5010456;28;20192;-74
2022/09/29 09:06:09;;;;;;;3.47;3.27;;;;;;;9.84;96.60;99079.09;5009982;28;20267;-75
2022/09/29 09:09:13;;;;;;;2.27;2.10;;;;;;;9.96;96.73;99081.03;4992827;28;20263;-74
2022/09/29 09:11:57;;;;;;;4.43;4.10;;;;;;;10.09;96.04;99082.63;5010642;28;20180;-75
2022/09/29 09:14:31;;;;;;;2.57;1.37;;;;;;;10.23;95.47;99090.50;5010466;28;20220;-75
2022/09/29 09:17:19;;;;;;;0.00;0.00;;;;;;;10.34;94.71;99088.09;5014032;28;20206;-74
2022/09/29 09:20:12;;;;;;;2.87;2.37;;;;;;;10.65;94.88;99092.94;5010316;28;20182;-75
2022/09/29 09:22:47;;;;;;;4.03;3.37;;;;;;;10.74;92.68;99077.22;5010148;28;20188;-74
2022/09/29 09:25:22;;;;;;;5.63;5.17;;;;;;;10.80;92.30;99085.97;5010139;28;20207;-74
2022/09/29 09:28:04;;;;;;;6.50;4.27;;;;;;;10.68;91.15;99087.56;5009821;28;20211;-75
2022/09/29 09:30:37;;;;;;;0.30;0.30;;;;;;;10.73;92.73;99092.81;5010065;28;20191;-75
2022/09/29 09:33:11;;;;;;;2.17;2.07;;;;;;;10.69;93.22;99082.91;4992522;28;20275;-75
2022/09/29 09:35:52;;;;;;;1.70;1.60;;;;;;;10.72;93.67;99090.44;4992476;28;20175;-75
2022/09/29 09:38:27;;;;;;;8.23;3.13;;;;;;;10.82;93.76;99086.41;4992408;28;20176;-74
2022/09/29 09:40:55;;;;;;;0.00;0.00;;;;;;;10.86;94.18;99093.59;5011973;28;20306;-75
2022/09/29 09:43:30;;;;;;;1.00;1.00;;;;;;;10.99;93.85;99091.59;5013389;28;20177;-75
2022/09/29 09:46:08;;;;;;;3.13;2.93;;;;;;;11.13;94.09;99089.25;5013505;28;20235;-75
2022/09/29 09:48:42;;;;;;;2.83;2.70;;;;;;;11.31;94.06;99092.50;5013510;28;20180;-75
2022/09/29 09:51:31;;;;;;;1.60;1.50;;;;;;;11.33;91.79;99085.53;5013253;28;20180;-75
2022/09/29 09:54:02;;;;;;;0.27;0.27;;;;;;;11.28;91.21;99091.25;5013547;28;20183;-74
2022/09/29 09:56:52;;;;;;;2.33;2.23;;;;;;;11.27;92.02;99094.31;5013268;28;20184;-74
2022/09/29 09:59:25;;;;;;;1.33;1.23;;;;;;;11.20;91.65;99096.88;5013276;28;20213;-75
2022/09/29 10:01:51;;;;;;;3.83;3.53;;;;;;;11.26;91.77;99095.47;5013022;28;20181;-74
2022/09/29 10:04:16;;;;;;;2.23;2.13;;;;;;;11.27;90.01;99092.38;5012842;28;20208;-74
2022/09/29 10:06:41;;;;;;;3.20;3.00;;;;;;;11.29;88.31;99095.59;5012649;28;20192;-74
2022/09/29 10:09:13;;;;;;;2.90;2.70;;;;;;;11.19;88.41;99096.06;5013126;28;20185;-74
2022/09/29 10:11:40;;;;;;;0.03;0.03;;;;;;;11.20;90.04;99092.19;5012895;28;20710;-74
2022/09/29 10:14:24;;;;;;;0.10;0.10;;;;;;;11.39;91.76;99093.47;5012864;28;20683;-75
2022/09/29 10:17:02;;;;;;;0.60;0.60;;;;;;;11.44;89.93;99095.97;5012776;28;20628;-75
2022/09/29 10:19:55;;;;;;;0.37;0.37;;;;;;;11.51;88.99;99096.16;5012808;28;20659;-75
2022/09/29 10:22:21;;;;;;;3.47;3.23;;;;;;;11.62;88.39;99094.50;5012774;28;20180;-76
2022/09/29 10:24:46;;;;;;;8.20;2.30;;;;;;;11.62;87.42;99097.22;5012834;28;20266;-77
2022/09/29 10:27:19;;;;;;;2.67;1.30;;;;;;;11.71;86.12;99089.63;5012303;28;20181;-77
2022/09/29 10:29:48;;;;;;;0.23;0.23;;;;;;;11.77;84.27;99092.91;5012706;28;20180;-77
2022/09/29 10:32:20;;;;;;;0.10;0.10;;;;;;;11.94;84.48;99098.06;5012705;28;20177;-77
2022/09/29 10:34:50;;;;;;;1.67;1.57;;;;;;;11.96;83.75;99098.50;5012599;28;20229;-76
2022/09/29 10:37:36;;;;;;;0.63;0.63;;;;;;;11.99;83.58;99100.53;5012069;28;20179;-77
2022/09/29 10:40:08;;;;;;;0.77;0.77;;;;;;;12.00;83.77;99102.13;5012499;28;20578;-77
2022/09/29 10:42:35;;;;;;;3.00;2.87;;;;;;;12.08;83.45;99103.88;4994628;28;20176;-77
2022/09/29 10:45:39;;;;;;;1.00;0.97;;;;;;;12.25;82.61;99101.94;5012127;28;20292;-76
2022/09/29 10:48:12;;;;;;;0.60;0.60;;;;;;;12.33;81.80;99100.97;4932182;29;20730;-76
2022/09/29 10:51:13;;;;;;;0.00;0.00;;;;;;;12.34;80.63;99106.06;4932371;29;20192;-78
2022/09/29 10:53:42;;;;;;;0.67;0.67;;;;;;;12.46;82.32;99111.44;4989700;28;20188;-76
2022/09/29 10:56:23;;;;;;;0.90;0.90;;;;;;;12.56;80.29;99098.34;5012221;28;20212;-77
2022/09/29 10:58:54;;;;;;;16.87;1.20;;;;;;;12.57;79.97;99110.88;5012219;28;20192;-77
2022/09/29 11:01:21;;;;;;;0.80;0.80;;;;;;;12.33;79.30;99104.50;5011823;28;20177;-75
2022/09/29 11:03:49;;;;;;;0.00;0.00;;;;;;;12.25;79.59;99115.63;5011657;28;20184;-77
2022/09/29 11:06:15;;;;;;;1.23;1.17;;;;;;;12.13;78.21;99114.56;5011632;28;20172;-77
2022/09/29 11:08:54;;;;;;;0.77;0.77;;;;;;;12.08;79.39;99117.56;5011938;28;20207;-76
2022/09/29 11:11:24;;;;;;;0.20;0.20;;;;;;;12.29;79.58;99117.28;4994005;28;20176;-76
2022/09/29 11:13:51;;;;;;;0.57;0.57;;;;;;;12.45;78.61;99122.75;4994588;28;20645;-77
2022/09/29 11:16:30;;;;;;;1.00;1.00;;;;;;;12.70;78.65;99126.06;5011466;28;20185;-77
2022/09/29 11:19:03;;;;;;;1.80;1.30;;;;;;;12.95;78.01;99124.66;5012070;28;20180;-76
2022/09/29 11:21:51;;;;;;;1.47;1.37;;;;;;;12.98;75.91;99114.91;4993836;28;20546;-77
2022/09/29 11:24:34;;;;;;;1.20;1.13;;;;;;;13.15;76.30;99125.44;4993255;28;20318;-77
2022/09/29 11:27:06;;;;;;;0.23;0.23;;;;;;;13.15;73.59;99122.69;5011642;28;20184;-76
2022/09/29 11:29:46;;;;;;;0.47;0.37;;;;;;;13.05;73.57;99128.78;4993776;28;20209;-77
2022/09/29 11:32:37;;;;;;;0.00;0.00;;;;;;;12.91;74.70;99123.78;4993805;28;20180;-77
2022/09/29 11:35:12;;;;;;;5.80;1.33;;;;;;;13.01;74.31;99125.94;5011344;28;20263;-78
2022/09/29 11:37:54;;;;;;;0.00;0.00;;;;;;;13.19;74.55;99117.34;5011262;28;20662;-76
2022/09/29 11:40:34;;;;;;;2.27;2.07;;;;;;;13.27;73.24;99125.34;5011368;28;20175;-76
2022/09/29 11:43:25;;;;;;;0.30;0.30;;;;;;;13.18;72.48;99123.94;5011052;28;20434;-78
2022/09/29 11:46:22;;;;;;;0.00;0.00;;;;;;;13.00;73.15;99120.81;5010857;28;20200;-77
2022/09/29 11:48:52;;;;;;;0.10;0.10;;;;;;;12.93;75.31;99126.16;4967435;28;20222;-77
2022/09/29 11:51:20;;;;;;;0.00;0.00;;;;;;;13.01;74.26;99133.38;5010848;28;20176;-77